sensor_id;sensor_type;location;lat;lon;timestamp;temperature;humidity
45104;DHT22;30865;51.288;4.572;2023-04-15T00:01:57;6.30;99.90
45104;DHT22;30865;51.288;4.572;2023-04-15T00:04:22;6.20;99.90
45104;DHT22;30865;51.288;4.572;2023-04-15T00:06:51;6.20;99.90
45104;DHT22;30865;51.288;4.572;2023-04-15T00:09:18;6.20;99.90
45104;DHT22;30865;51.288;4.572;2023-04-15T00:11:44;6.10;99.90
45104;DHT22;30865;51.288;4.572;2023-04-15T00:14:11;6.10;99.90
45104;DHT22;30865;51.288;4.572;2023-04-15T00:16:37;6.10;99.90
45104;DHT22;30865;51.288;4.572;2023-04-15T00:19:02;6.10;99.90
45104;DHT22;30865;51.288;4.572;2023-04-15T00:21:28;6.10;99.90
45104;DHT22;30865;51.288;4.572;2023-04-15T00:23:53;6.00;99.90
45104;DHT22;30865;51.288;4.572;2023-04-15T00:26:19;6.00;99.90
45104;DHT22;30865;51.288;4.572;2023-04-15T00:28:45;5.90;99.90
45104;DHT22;30865;51.288;4.572;2023-04-15T00:31:11;5.80;99.90
45104;DHT22;30865;51.288;4.572;2023-04-15T00:33:36;5.80;99.90
45104;DHT22;30865;51.288;4.572;2023-04-15T00:36:02;5.80;99.90
45104;DHT22;30865;51.288;4.572;2023-04-15T00:38:28;5.80;99.90
45104;DHT22;30865;51.288;4.572;2023-04-15T00:40:54;5.80;99.90
45104;DHT22;30865;51.288;4.572;2023-04-15T00:43:20;5.90;99.90
45104;DHT22;30865;51.288;4.572;2023-04-15T00:45:46;5.80;99.90
45104;DHT22;30865;51.288;4.572;2023-04-15T00:48:12;5.80;99.90
45104;DHT22;30865;51.288;4.572;2023-04-15T00:50:37;5.80;99.90
45104;DHT22;30865;51.288;4.572;2023-04-15T00:53:03;5.80;99.90
45104;DHT22;30865;51.288;4.572;2023-04-15T00:55:31;5.80;99.90
45104;DHT22;30865;51.288;4.572;2023-04-15T00:57:56;5.80;99.90
45104;DHT22;30865;51.288;4.572;2023-04-15T01:00:22;5.80;99.90
45104;DHT22;30865;51.288;4.572;2023-04-15T01:02:48;5.90;99.90
45104;DHT22;30865;51.288;4.572;2023-04-15T01:05:14;5.90;99.90
45104;DHT22;30865;51.288;4.572;2023-04-15T01:07:42;5.80;99.90
45104;DHT22;30865;51.288;4.572;2023-04-15T01:10:08;5.70;99.90
45104;DHT22;30865;51.288;4.572;2023-04-15T01:12:34;5.70;99.90
45104;DHT22;30865;51.288;4.572;2023-04-15T01:15:01;5.70;99.90
45104;DHT22;30865;51.288;4.572;2023-04-15T01:17:26;5.70;99.90
45104;DHT22;30865;51.288;4.572;2023-04-15T01:19:57;5.60;99.90
45104;DHT22;30865;51.288;4.572;2023-04-15T01:22:24;5.40;99.90
45104;DHT22;30865;51.288;4.572;2023-04-15T01:25:09;5.40;99.90
45104;DHT22;30865;51.288;4.572;2023-04-15T01:27:38;5.30;99.90
45104;DHT22;30865;51.288;4.572;2023-04-15T01:30:06;5.20;99.90
45104;DHT22;30865;51.288;4.572;2023-04-15T01:32:32;5.20;99.90
45104;DHT22;30865;51.288;4.572;2023-04-15T01:35:00;5.30;99.90
45104;DHT22;30865;51.288;4.572;2023-04-15T01:37:26;5.30;99.90
45104;DHT22;30865;51.288;4.572;2023-04-15T01:39:52;5.30;99.90
45104;DHT22;30865;51.288;4.572;2023-04-15T01:42:17;5.30;99.90
45104;DHT22;30865;51.288;4.572;2023-04-15T01:44:43;5.30;99.90
45104;DHT22;30865;51.288;4.572;2023-04-15T01:47:08;5.30;99.90
45104;DHT22;30865;51.288;4.572;2023-04-15T01:49:34;5.20;99.90
45104;DHT22;30865;51.288;4.572;2023-04-15T01:52:00;5.30;99.90
45104;DHT22;30865;51.288;4.572;2023-04-15T01:54:26;5.20;99.90
45104;DHT22;30865;51.288;4.572;2023-04-15T01:56:52;5.30;99.90
45104;DHT22;30865;51.288;4.572;2023-04-15T01:59:17;5.30;99.90
45104;DHT22;30865;51.288;4.572;2023-04-15T02:01:46;5.40;99.90
45104;DHT22;30865;51.288;4.572;2023-04-15T02:04:11;5.40;99.90
45104;DHT22;30865;51.288;4.572;2023-04-15T02:06:43;5.40;99.90
45104;DHT22;30865;51.288;4.572;2023-04-15T02:09:09;5.40;99.90
45104;DHT22;30865;51.288;4.572;2023-04-15T02:11:35;5.40;99.90
45104;DHT22;30865;51.288;4.572;2023-04-15T02:14:02;5.30;99.90
45104;DHT22;30865;51.288;4.572;2023-04-15T02:16:29;5.30;99.90
45104;DHT22;30865;51.288;4.572;2023-04-15T02:18:54;5.30;99.90
45104;DHT22;30865;51.288;4.572;2023-04-15T02:21:25;5.20;99.90
45104;DHT22;30865;51.288;4.572;2023-04-15T02:23:51;5.20;99.90
45104;DHT22;30865;51.288;4.572;2023-04-15T02:26:18;5.10;99.90
45104;DHT22;30865;51.288;4.572;2023-04-15T02:28:43;5.10;99.90
45104;DHT22;30865;51.288;4.572;2023-04-15T02:31:11;5.00;99.90
45104;DHT22;30865;51.288;4.572;2023-04-15T02:33:37;5.00;99.90
45104;DHT22;30865;51.288;4.572;2023-04-15T02:36:03;5.00;99.90
45104;DHT22;30865;51.288;4.572;2023-04-15T02:38:28;4.90;99.90
45104;DHT22;30865;51.288;4.572;2023-04-15T02:40:55;4.80;99.90
45104;DHT22;30865;51.288;4.572;2023-04-15T02:43:21;4.80;99.90
45104;DHT22;30865;51.288;4.572;2023-04-15T02:45:47;4.70;99.90
45104;DHT22;30865;51.288;4.572;2023-04-15T02:48:12;4.70;99.90
45104;DHT22;30865;51.288;4.572;2023-04-15T02:50:38;4.70;99.90
45104;DHT22;30865;51.288;4.572;2023-04-15T02:53:05;4.70;99.90
45104;DHT22;30865;51.288;4.572;2023-04-15T02:55:31;4.70;99.90
45104;DHT22;30865;51.288;4.572;2023-04-15T02:57:56;4.70;99.90
45104;DHT22;30865;51.288;4.572;2023-04-15T03:00:24;4.70;99.90
45104;DHT22;30865;51.288;4.572;2023-04-15T03:02:50;4.60;99.90
45104;DHT22;30865;51.288;4.572;2023-04-15T03:05:21;4.60;99.90
45104;DHT22;30865;51.288;4.572;2023-04-15T03:07:49;4.60;99.90
45104;DHT22;30865;51.288;4.572;2023-04-15T03:10:14;4.60;99.90
45104;DHT22;30865;51.288;4.572;2023-04-15T03:12:40;4.60;99.90
45104;DHT22;30865;51.288;4.572;2023-04-15T03:15:09;4.60;99.90
45104;DHT22;30865;51.288;4.572;2023-04-15T03:17:34;4.70;99.90
45104;DHT22;30865;51.288;4.572;2023-04-15T03:20:04;4.60;99.90
45104;DHT22;30865;51.288;4.572;2023-04-15T03:22:31;4.60;99.90
45104;DHT22;30865;51.288;4.572;2023-04-15T03:24:59;4.70;99.90
45104;DHT22;30865;51.288;4.572;2023-04-15T03:27:25;4.60;99.90
45104;DHT22;30865;51.288;4.572;2023-04-15T03:29:50;4.60;99.90
45104;DHT22;30865;51.288;4.572;2023-04-15T03:32:19;4.60;99.90
45104;DHT22;30865;51.288;4.572;2023-04-15T03:34:44;4.60;99.90
45104;DHT22;30865;51.288;4.572;2023-04-15T03:37:10;4.60;99.90
45104;DHT22;30865;51.288;4.572;2023-04-15T03:39:35;4.50;99.90
45104;DHT22;30865;51.288;4.572;2023-04-15T03:42:04;4.50;99.90
45104;DHT22;30865;51.288;4.572;2023-04-15T03:44:29;4.50;99.90
45104;DHT22;30865;51.288;4.572;2023-04-15T03:46:55;4.50;99.90
45104;DHT22;30865;51.288;4.572;2023-04-15T03:49:20;4.50;99.90
45104;DHT22;30865;51.288;4.572;2023-04-15T03:51:47;4.50;99.90
45104;DHT22;30865;51.288;4.572;2023-04-15T03:54:13;4.50;99.90
45104;DHT22;30865;51.288;4.572;2023-04-15T03:56:39;4.50;99.90
45104;DHT22;30865;51.288;4.572;2023-04-15T03:59:05;4.40;99.90
45104;DHT22;30865;51.288;4.572;2023-04-15T04:01:30;4.50;99.90
45104;DHT22;30865;51.288;4.572;2023-04-15T04:03:56;4.50;99.90
45104;DHT22;30865;51.288;4.572;2023-04-15T04:06:22;4.50;99.90
45104;DHT22;30865;51.288;4.572;2023-04-15T04:08:47;4.50;99.90
45104;DHT22;30865;51.288;4.572;2023-04-15T04:11:13;4.50;99.90
45104;DHT22;30865;51.288;4.572;2023-04-15T04:13:38;4.40;99.90
45104;DHT22;30865;51.288;4.572;2023-04-15T04:16:07;4.40;99.90
45104;DHT22;30865;51.288;4.572;2023-04-15T04:18:32;4.40;99.90
45104;DHT22;30865;51.288;4.572;2023-04-15T04:20:58;4.40;99.90
45104;DHT22;30865;51.288;4.572;2023-04-15T04:23:24;4.40;99.90
45104;DHT22;30865;51.288;4.572;2023-04-15T04:25:50;4.40;99.90
45104;DHT22;30865;51.288;4.572;2023-04-15T04:28:17;4.30;99.90
45104;DHT22;30865;51.288;4.572;2023-04-15T04:30:43;4.20;99.90
45104;DHT22;30865;51.288;4.572;2023-04-15T04:33:09;4.20;99.90
45104;DHT22;30865;51.288;4.572;2023-04-15T04:35:38;4.30;99.90
45104;DHT22;30865;51.288;4.572;2023-04-15T04:38:03;4.30;99.90
45104;DHT22;30865;51.288;4.572;2023-04-15T04:40:29;4.20;99.90
45104;DHT22;30865;51.288;4.572;2023-04-15T04:42:55;4.20;99.90
45104;DHT22;30865;51.288;4.572;2023-04-15T04:45:20;4.20;99.90
45104;DHT22;30865;51.288;4.572;2023-04-15T04:47:46;4.20;99.90
45104;DHT22;30865;51.288;4.572;2023-04-15T04:50:12;4.20;99.90
45104;DHT22;30865;51.288;4.572;2023-04-15T04:52:38;4.10;99.90
45104;DHT22;30865;51.288;4.572;2023-04-15T04:55:04;4.20;99.90
45104;DHT22;30865;51.288;4.572;2023-04-15T04:57:29;4.20;99.90
45104;DHT22;30865;51.288;4.572;2023-04-15T04:59:55;4.10;99.90
45104;DHT22;30865;51.288;4.572;2023-04-15T05:02:21;4.10;99.90
45104;DHT22;30865;51.288;4.572;2023-04-15T05:04:46;4.10;99.90
45104;DHT22;30865;51.288;4.572;2023-04-15T05:07:12;4.10;99.90
45104;DHT22;30865;51.288;4.572;2023-04-15T05:09:37;4.10;99.90
45104;DHT22;30865;51.288;4.572;2023-04-15T05:12:03;4.10;99.90
45104;DHT22;30865;51.288;4.572;2023-04-15T05:14:29;4.10;99.90
45104;DHT22;30865;51.288;4.572;2023-04-15T05:16:58;4.10;99.90
45104;DHT22;30865;51.288;4.572;2023-04-15T05:19:23;4.10;99.90
45104;DHT22;30865;51.288;4.572;2023-04-15T05:21:49;4.00;99.90
45104;DHT22;30865;51.288;4.572;2023-04-15T05:24:14;4.10;99.90
45104;DHT22;30865;51.288;4.572;2023-04-15T05:26:40;4.00;99.90
45104;DHT22;30865;51.288;4.572;2023-04-15T05:29:06;4.00;99.90
45104;DHT22;30865;51.288;4.572;2023-04-15T05:31:31;4.10;99.90
45104;DHT22;30865;51.288;4.572;2023-04-15T05:33:57;4.00;99.90
45104;DHT22;30865;51.288;4.572;2023-04-15T05:36:22;4.10;99.90
45104;DHT22;30865;51.288;4.572;2023-04-15T05:38:48;4.10;99.90
45104;DHT22;30865;51.288;4.572;2023-04-15T05:41:13;4.10;99.90
45104;DHT22;30865;51.288;4.572;2023-04-15T05:43:40;4.20;99.90
45104;DHT22;30865;51.288;4.572;2023-04-15T05:46:06;4.10;99.90
45104;DHT22;30865;51.288;4.572;2023-04-15T05:48:32;4.20;99.90
45104;DHT22;30865;51.288;4.572;2023-04-15T05:50:58;4.30;99.90
45104;DHT22;30865;51.288;4.572;2023-04-15T05:53:24;4.40;99.90
45104;DHT22;30865;51.288;4.572;2023-04-15T05:55:50;4.30;99.90
45104;DHT22;30865;51.288;4.572;2023-04-15T05:58:15;4.40;99.90
45104;DHT22;30865;51.288;4.572;2023-04-15T06:00:41;4.50;99.90
45104;DHT22;30865;51.288;4.572;2023-04-15T06:03:06;4.60;99.90
45104;DHT22;30865;51.288;4.572;2023-04-15T06:05:32;4.70;99.90
45104;DHT22;30865;51.288;4.572;2023-04-15T06:07:57;4.80;99.90
45104;DHT22;30865;51.288;4.572;2023-04-15T06:10:23;4.90;99.90
45104;DHT22;30865;51.288;4.572;2023-04-15T06:12:48;5.10;99.90
45104;DHT22;30865;51.288;4.572;2023-04-15T06:15:14;5.30;99.90
45104;DHT22;30865;51.288;4.572;2023-04-15T06:17:39;5.30;99.90
45104;DHT22;30865;51.288;4.572;2023-04-15T06:20:05;5.60;99.90
45104;DHT22;30865;51.288;4.572;2023-04-15T06:22:32;5.70;99.90
45104;DHT22;30865;51.288;4.572;2023-04-15T06:24:58;5.90;99.90
45104;DHT22;30865;51.288;4.572;2023-04-15T06:27:23;6.10;99.90
45104;DHT22;30865;51.288;4.572;2023-04-15T06:29:49;6.20;99.90
45104;DHT22;30865;51.288;4.572;2023-04-15T06:32:14;6.40;99.90
45104;DHT22;30865;51.288;4.572;2023-04-15T06:34:40;6.40;99.90
45104;DHT22;30865;51.288;4.572;2023-04-15T06:37:06;6.60;99.90
45104;DHT22;30865;51.288;4.572;2023-04-15T06:39:31;6.80;99.90
45104;DHT22;30865;51.288;4.572;2023-04-15T06:41:57;6.90;99.90
45104;DHT22;30865;51.288;4.572;2023-04-15T06:44:22;6.90;99.90
45104;DHT22;30865;51.288;4.572;2023-04-15T06:46:47;7.10;99.90
45104;DHT22;30865;51.288;4.572;2023-04-15T06:49:13;7.30;99.90
45104;DHT22;30865;51.288;4.572;2023-04-15T06:51:38;7.10;99.90
45104;DHT22;30865;51.288;4.572;2023-04-15T06:54:07;7.10;99.90
45104;DHT22;30865;51.288;4.572;2023-04-15T06:56:33;7.30;99.90
45104;DHT22;30865;51.288;4.572;2023-04-15T06:58:59;7.30;99.90
45104;DHT22;30865;51.288;4.572;2023-04-15T07:01:25;7.40;99.90
45104;DHT22;30865;51.288;4.572;2023-04-15T07:03:50;7.30;99.90
45104;DHT22;30865;51.288;4.572;2023-04-15T07:06:16;7.40;99.90
45104;DHT22;30865;51.288;4.572;2023-04-15T07:08:42;7.50;99.90
45104;DHT22;30865;51.288;4.572;2023-04-15T07:11:08;7.50;99.90
45104;DHT22;30865;51.288;4.572;2023-04-15T07:13:33;7.40;99.90
45104;DHT22;30865;51.288;4.572;2023-04-15T07:15:59;7.20;99.90
45104;DHT22;30865;51.288;4.572;2023-04-15T07:18:24;7.20;99.90
45104;DHT22;30865;51.288;4.572;2023-04-15T07:20:50;7.20;99.90
45104;DHT22;30865;51.288;4.572;2023-04-15T07:23:15;7.10;99.90
45104;DHT22;30865;51.288;4.572;2023-04-15T07:25:41;7.20;99.90
45104;DHT22;30865;51.288;4.572;2023-04-15T07:28:06;7.20;99.90
45104;DHT22;30865;51.288;4.572;2023-04-15T07:30:32;7.30;99.90
45104;DHT22;30865;51.288;4.572;2023-04-15T07:32:58;7.30;99.90
45104;DHT22;30865;51.288;4.572;2023-04-15T07:35:24;7.40;99.90
45104;DHT22;30865;51.288;4.572;2023-04-15T07:37:50;7.60;99.90
45104;DHT22;30865;51.288;4.572;2023-04-15T07:40:16;7.70;99.90
45104;DHT22;30865;51.288;4.572;2023-04-15T07:42:42;7.90;99.80
45104;DHT22;30865;51.288;4.572;2023-04-15T07:45:08;8.10;99.40
45104;DHT22;30865;51.288;4.572;2023-04-15T07:47:34;8.20;99.40
45104;DHT22;30865;51.288;4.572;2023-04-15T07:49:59;8.30;98.80
45104;DHT22;30865;51.288;4.572;2023-04-15T07:52:26;8.50;98.40
45104;DHT22;30865;51.288;4.572;2023-04-15T07:54:52;8.70;98.00
45104;DHT22;30865;51.288;4.572;2023-04-15T07:57:17;8.70;97.90
45104;DHT22;30865;51.288;4.572;2023-04-15T07:59:43;8.80;97.70
45104;DHT22;30865;51.288;4.572;2023-04-15T08:02:09;9.00;97.20
45104;DHT22;30865;51.288;4.572;2023-04-15T08:04:35;9.10;97.20
45104;DHT22;30865;51.288;4.572;2023-04-15T08:07:00;9.10;97.10
45104;DHT22;30865;51.288;4.572;2023-04-15T08:09:26;9.10;96.80
45104;DHT22;30865;51.288;4.572;2023-04-15T08:11:52;9.40;96.40
45104;DHT22;30865;51.288;4.572;2023-04-15T08:14:17;9.70;96.40
45104;DHT22;30865;51.288;4.572;2023-04-15T08:16:43;9.90;95.60
45104;DHT22;30865;51.288;4.572;2023-04-15T08:19:09;10.10;94.80
45104;DHT22;30865;51.288;4.572;2023-04-15T08:21:35;10.30;94.20
45104;DHT22;30865;51.288;4.572;2023-04-15T08:24:01;10.40;94.30
45104;DHT22;30865;51.288;4.572;2023-04-15T08:26:27;10.90;93.60
45104;DHT22;30865;51.288;4.572;2023-04-15T08:28:53;10.90;93.70
45104;DHT22;30865;51.288;4.572;2023-04-15T08:31:18;11.30;92.70
45104;DHT22;30865;51.288;4.572;2023-04-15T08:33:44;11.10;91.90
45104;DHT22;30865;51.288;4.572;2023-04-15T08:36:10;11.50;91.20
45104;DHT22;30865;51.288;4.572;2023-04-15T08:38:36;11.80;90.60
45104;DHT22;30865;51.288;4.572;2023-04-15T08:41:22;12.00;90.60
45104;DHT22;30865;51.288;4.572;2023-04-15T08:43:57;12.10;89.80
45104;DHT22;30865;51.288;4.572;2023-04-15T08:46:28;12.40;88.90
45104;DHT22;30865;51.288;4.572;2023-04-15T08:48:56;12.60;88.20
45104;DHT22;30865;51.288;4.572;2023-04-15T08:51:23;12.60;86.30
45104;DHT22;30865;51.288;4.572;2023-04-15T08:53:48;13.00;84.20
45104;DHT22;30865;51.288;4.572;2023-04-15T08:56:15;12.80;83.50
45104;DHT22;30865;51.288;4.572;2023-04-15T08:58:44;13.20;82.40
45104;DHT22;30865;51.288;4.572;2023-04-15T09:01:13;13.80;77.60
45104;DHT22;30865;51.288;4.572;2023-04-15T09:03:39;13.20;81.10
45104;DHT22;30865;51.288;4.572;2023-04-15T09:06:05;13.60;79.30
45104;DHT22;30865;51.288;4.572;2023-04-15T09:08:32;13.90;78.40
45104;DHT22;30865;51.288;4.572;2023-04-15T09:10:59;13.90;75.80
45104;DHT22;30865;51.288;4.572;2023-04-15T09:13:25;14.10;76.70
45104;DHT22;30865;51.288;4.572;2023-04-15T09:15:51;14.20;74.50
45104;DHT22;30865;51.288;4.572;2023-04-15T09:18:33;14.30;73.70
45104;DHT22;30865;51.288;4.572;2023-04-15T09:21:09;14.30;74.60
45104;DHT22;30865;51.288;4.572;2023-04-15T09:23:37;14.50;73.10
45104;DHT22;30865;51.288;4.572;2023-04-15T09:26:04;14.20;73.20
45104;DHT22;30865;51.288;4.572;2023-04-15T09:28:33;14.50;72.90
45104;DHT22;30865;51.288;4.572;2023-04-15T09:31:08;15.10;71.20
45104;DHT22;30865;51.288;4.572;2023-04-15T09:33:34;15.20;70.50
45104;DHT22;30865;51.288;4.572;2023-04-15T09:36:03;15.30;70.40
45104;DHT22;30865;51.288;4.572;2023-04-15T09:38:30;15.90;68.90
45104;DHT22;30865;51.288;4.572;2023-04-15T09:40:56;15.80;67.20
45104;DHT22;30865;51.288;4.572;2023-04-15T09:43:22;15.50;67.80
45104;DHT22;30865;51.288;4.572;2023-04-15T09:46:01;15.60;66.20
45104;DHT22;30865;51.288;4.572;2023-04-15T09:48:26;15.80;67.90
45104;DHT22;30865;51.288;4.572;2023-04-15T09:51:00;15.70;68.40
45104;DHT22;30865;51.288;4.572;2023-04-15T09:53:26;16.00;67.70
45104;DHT22;30865;51.288;4.572;2023-04-15T09:56:01;15.90;67.50
45104;DHT22;30865;51.288;4.572;2023-04-15T09:58:32;16.00;67.80
45104;DHT22;30865;51.288;4.572;2023-04-15T10:01:01;16.30;68.20
45104;DHT22;30865;51.288;4.572;2023-04-15T10:03:30;16.20;67.80
45104;DHT22;30865;51.288;4.572;2023-04-15T10:05:57;16.20;66.80
45104;DHT22;30865;51.288;4.572;2023-04-15T10:08:25;16.00;66.80
45104;DHT22;30865;51.288;4.572;2023-04-15T10:10:51;16.20;66.60
45104;DHT22;30865;51.288;4.572;2023-04-15T10:13:19;15.60;66.80
45104;DHT22;30865;51.288;4.572;2023-04-15T10:16:04;15.10;67.40
45104;DHT22;30865;51.288;4.572;2023-04-15T10:18:34;15.10;66.30
45104;DHT22;30865;51.288;4.572;2023-04-15T10:21:00;15.00;67.00
45104;DHT22;30865;51.288;4.572;2023-04-15T10:23:26;15.10;68.30
45104;DHT22;30865;51.288;4.572;2023-04-15T10:25:53;14.90;68.60
45104;DHT22;30865;51.288;4.572;2023-04-15T10:28:22;15.20;67.70
45104;DHT22;30865;51.288;4.572;2023-04-15T10:30:48;15.50;67.50
45104;DHT22;30865;51.288;4.572;2023-04-15T10:33:16;15.70;64.50
45104;DHT22;30865;51.288;4.572;2023-04-15T10:35:44;15.60;64.80
45104;DHT22;30865;51.288;4.572;2023-04-15T10:41:18;15.60;66.00
45104;DHT22;30865;51.288;4.572;2023-04-15T10:43:55;15.00;66.40
45104;DHT22;30865;51.288;4.572;2023-04-15T10:46:39;15.00;66.40
45104;DHT22;30865;51.288;4.572;2023-04-15T10:49:19;15.00;67.30
45104;DHT22;30865;51.288;4.572;2023-04-15T10:51:56;14.90;66.30
45104;DHT22;30865;51.288;4.572;2023-04-15T10:57:00;14.80;66.80
45104;DHT22;30865;51.288;4.572;2023-04-15T11:02:47;15.30;62.40
45104;DHT22;30865;51.288;4.572;2023-04-15T11:05:14;15.50;64.40
45104;DHT22;30865;51.288;4.572;2023-04-15T11:07:53;15.80;64.20
45104;DHT22;30865;51.288;4.572;2023-04-15T11:13:31;15.10;66.60
45104;DHT22;30865;51.288;4.572;2023-04-15T11:15:39;15.30;66.00
45104;DHT22;30865;51.288;4.572;2023-04-15T11:18:13;15.60;63.70
45104;DHT22;30865;51.288;4.572;2023-04-15T11:20:41;15.30;64.10
45104;DHT22;30865;51.288;4.572;2023-04-15T11:23:09;15.90;64.10
45104;DHT22;30865;51.288;4.572;2023-04-15T11:25:35;16.00;59.20
45104;DHT22;30865;51.288;4.572;2023-04-15T11:28:04;15.70;61.10
45104;DHT22;30865;51.288;4.572;2023-04-15T11:30:32;15.40;58.60
45104;DHT22;30865;51.288;4.572;2023-04-15T11:33:03;15.40;62.10
45104;DHT22;30865;51.288;4.572;2023-04-15T11:35:29;15.70;62.80
45104;DHT22;30865;51.288;4.572;2023-04-15T11:37:55;16.30;60.70
45104;DHT22;30865;51.288;4.572;2023-04-15T11:40:25;16.00;61.00
45104;DHT22;30865;51.288;4.572;2023-04-15T11:48:17;15.30;63.70
45104;DHT22;30865;51.288;4.572;2023-04-15T11:50:43;15.30;64.10
45104;DHT22;30865;51.288;4.572;2023-04-15T11:53:14;15.00;64.70
45104;DHT22;30865;51.288;4.572;2023-04-15T11:55:48;15.10;62.40
45104;DHT22;30865;51.288;4.572;2023-04-15T11:58:22;14.80;68.40
45104;DHT22;30865;51.288;4.572;2023-04-15T12:00:48;14.10;87.00
45104;DHT22;30865;51.288;4.572;2023-04-15T12:03:29;13.70;87.60
45104;DHT22;30865;51.288;4.572;2023-04-15T12:06:16;13.70;93.30
45104;DHT22;30865;51.288;4.572;2023-04-15T12:11:30;13.90;91.10
45104;DHT22;30865;51.288;4.572;2023-04-15T12:16:28;14.40;88.90
45104;DHT22;30865;51.288;4.572;2023-04-15T12:18:57;14.50;83.70
45104;DHT22;30865;51.288;4.572;2023-04-15T12:21:26;14.20;85.60
45104;DHT22;30865;51.288;4.572;2023-04-15T12:23:56;14.00;86.10
45104;DHT22;30865;51.288;4.572;2023-04-15T12:26:26;13.70;81.40
45104;DHT22;30865;51.288;4.572;2023-04-15T12:29:09;13.60;85.00
45104;DHT22;30865;51.288;4.572;2023-04-15T12:31:35;13.80;83.60
45104;DHT22;30865;51.288;4.572;2023-04-15T12:34:02;13.30;91.00
45104;DHT22;30865;51.288;4.572;2023-04-15T12:36:28;12.40;96.30
45104;DHT22;30865;51.288;4.572;2023-04-15T12:38:56;12.20;99.90
45104;DHT22;30865;51.288;4.572;2023-04-15T12:41:21;11.50;99.90
45104;DHT22;30865;51.288;4.572;2023-04-15T12:43:49;10.90;99.90
45104;DHT22;30865;51.288;4.572;2023-04-15T12:46:14;10.60;99.90
45104;DHT22;30865;51.288;4.572;2023-04-15T12:48:40;10.30;99.90
45104;DHT22;30865;51.288;4.572;2023-04-15T12:51:06;10.10;99.90
45104;DHT22;30865;51.288;4.572;2023-04-15T12:53:31;9.90;99.90
45104;DHT22;30865;51.288;4.572;2023-04-15T12:55:57;9.70;99.90
45104;DHT22;30865;51.288;4.572;2023-04-15T12:58:25;9.60;99.90
45104;DHT22;30865;51.288;4.572;2023-04-15T13:00:51;9.50;99.90
45104;DHT22;30865;51.288;4.572;2023-04-15T13:03:17;9.50;99.90
45104;DHT22;30865;51.288;4.572;2023-04-15T13:05:42;9.70;99.90
45104;DHT22;30865;51.288;4.572;2023-04-15T13:08:08;9.90;99.90
45104;DHT22;30865;51.288;4.572;2023-04-15T13:10:36;10.00;99.90
45104;DHT22;30865;51.288;4.572;2023-04-15T13:13:02;10.20;99.90
45104;DHT22;30865;51.288;4.572;2023-04-15T13:15:28;10.20;99.90
45104;DHT22;30865;51.288;4.572;2023-04-15T13:17:54;10.40;99.90
45104;DHT22;30865;51.288;4.572;2023-04-15T13:20:19;10.60;99.90
45104;DHT22;30865;51.288;4.572;2023-04-15T13:22:45;10.70;99.90
45104;DHT22;30865;51.288;4.572;2023-04-15T13:25:11;10.80;99.90
45104;DHT22;30865;51.288;4.572;2023-04-15T13:27:36;11.10;99.90
45104;DHT22;30865;51.288;4.572;2023-04-15T13:30:05;11.10;99.90
45104;DHT22;30865;51.288;4.572;2023-04-15T13:32:31;11.40;99.90
45104;DHT22;30865;51.288;4.572;2023-04-15T13:34:57;11.50;99.90
45104;DHT22;30865;51.288;4.572;2023-04-15T13:37:27;11.80;99.90
45104;DHT22;30865;51.288;4.572;2023-04-15T13:39:53;12.00;99.90
45104;DHT22;30865;51.288;4.572;2023-04-15T13:42:22;11.90;99.90
45104;DHT22;30865;51.288;4.572;2023-04-15T13:44:49;12.00;99.90
45104;DHT22;30865;51.288;4.572;2023-04-15T13:47:16;12.20;99.90
45104;DHT22;30865;51.288;4.572;2023-04-15T13:49:42;12.10;99.90
45104;DHT22;30865;51.288;4.572;2023-04-15T13:52:07;11.90;99.90
45104;DHT22;30865;51.288;4.572;2023-04-15T13:54:33;12.00;99.90
45104;DHT22;30865;51.288;4.572;2023-04-15T13:56:58;12.10;99.30
45104;DHT22;30865;51.288;4.572;2023-04-15T13:59:24;12.10;97.30
45104;DHT22;30865;51.288;4.572;2023-04-15T14:01:49;12.10;99.90
45104;DHT22;30865;51.288;4.572;2023-04-15T14:04:15;12.00;97.40
45104;DHT22;30865;51.288;4.572;2023-04-15T14:06:41;12.00;95.20
45104;DHT22;30865;51.288;4.572;2023-04-15T14:09:06;12.10;95.50
45104;DHT22;30865;51.288;4.572;2023-04-15T14:11:32;12.20;95.60
45104;DHT22;30865;51.288;4.572;2023-04-15T14:13:59;12.10;93.60
45104;DHT22;30865;51.288;4.572;2023-04-15T14:16:25;12.00;91.90
45104;DHT22;30865;51.288;4.572;2023-04-15T14:18:50;11.90;90.40
45104;DHT22;30865;51.288;4.572;2023-04-15T14:21:16;12.00;92.10
45104;DHT22;30865;51.288;4.572;2023-04-15T14:23:42;12.10;87.30
45104;DHT22;30865;51.288;4.572;2023-04-15T14:26:07;12.00;90.30
45104;DHT22;30865;51.288;4.572;2023-04-15T14:28:33;12.10;92.00
45104;DHT22;30865;51.288;4.572;2023-04-15T14:30:58;12.10;91.60
45104;DHT22;30865;51.288;4.572;2023-04-15T14:33:23;12.00;85.70
45104;DHT22;30865;51.288;4.572;2023-04-15T14:35:50;11.90;85.20
45104;DHT22;30865;51.288;4.572;2023-04-15T14:38:16;11.80;89.60
45104;DHT22;30865;51.288;4.572;2023-04-15T14:40:41;11.70;88.20
45104;DHT22;30865;51.288;4.572;2023-04-15T14:43:07;11.70;90.90
45104;DHT22;30865;51.288;4.572;2023-04-15T14:45:32;11.70;90.20
45104;DHT22;30865;51.288;4.572;2023-04-15T14:47:58;11.70;93.30
45104;DHT22;30865;51.288;4.572;2023-04-15T14:50:23;11.60;93.90
45104;DHT22;30865;51.288;4.572;2023-04-15T14:52:49;11.90;90.70
45104;DHT22;30865;51.288;4.572;2023-04-15T14:55:15;11.70;88.40
45104;DHT22;30865;51.288;4.572;2023-04-15T14:57:43;11.60;90.40
45104;DHT22;30865;51.288;4.572;2023-04-15T15:00:10;11.40;89.60
45104;DHT22;30865;51.288;4.572;2023-04-15T15:02:36;11.40;89.40
45104;DHT22;30865;51.288;4.572;2023-04-15T15:05:02;11.40;88.50
45104;DHT22;30865;51.288;4.572;2023-04-15T15:07:27;11.30;91.20
45104;DHT22;30865;51.288;4.572;2023-04-15T15:09:53;11.20;91.20
45104;DHT22;30865;51.288;4.572;2023-04-15T15:12:19;11.20;91.80
45104;DHT22;30865;51.288;4.572;2023-04-15T15:14:46;11.10;90.20
45104;DHT22;30865;51.288;4.572;2023-04-15T15:17:12;11.10;90.70
45104;DHT22;30865;51.288;4.572;2023-04-15T15:19:38;11.00;91.70
45104;DHT22;30865;51.288;4.572;2023-04-15T15:22:03;11.10;92.60
45104;DHT22;30865;51.288;4.572;2023-04-15T15:24:29;10.90;92.00
45104;DHT22;30865;51.288;4.572;2023-04-15T15:26:55;10.80;93.40
45104;DHT22;30865;51.288;4.572;2023-04-15T15:29:21;10.80;94.20
45104;DHT22;30865;51.288;4.572;2023-04-15T15:31:47;10.80;95.00
45104;DHT22;30865;51.288;4.572;2023-04-15T15:34:12;10.70;93.80
45104;DHT22;30865;51.288;4.572;2023-04-15T15:36:38;10.60;96.00
45104;DHT22;30865;51.288;4.572;2023-04-15T15:39:03;10.60;95.00
45104;DHT22;30865;51.288;4.572;2023-04-15T15:41:29;10.60;96.80
45104;DHT22;30865;51.288;4.572;2023-04-15T15:43:55;10.50;97.40
45104;DHT22;30865;51.288;4.572;2023-04-15T15:46:20;10.50;95.70
45104;DHT22;30865;51.288;4.572;2023-04-15T15:48:48;10.40;99.70
45104;DHT22;30865;51.288;4.572;2023-04-15T15:51:14;10.40;97.70
45104;DHT22;30865;51.288;4.572;2023-04-15T15:53:39;10.40;99.10
45104;DHT22;30865;51.288;4.572;2023-04-15T15:56:05;10.50;99.90
45104;DHT22;30865;51.288;4.572;2023-04-15T15:58:32;10.40;99.90
45104;DHT22;30865;51.288;4.572;2023-04-15T16:00:58;10.60;99.90